sensor_id;sensor_type;location;lat;lon;timestamp;temperature;humidity
21246;DHT22;10781;50.928;4.440;2022-11-25T00:02:06;12.60;99.90
21246;DHT22;10781;50.928;4.440;2022-11-25T00:04:32;12.70;99.90
21246;DHT22;10781;50.928;4.440;2022-11-25T00:07:01;12.80;99.90
21246;DHT22;10781;50.928;4.440;2022-11-25T00:09:27;12.60;99.90
21246;DHT22;10781;50.928;4.440;2022-11-25T00:11:53;12.60;99.90
21246;DHT22;10781;50.928;4.440;2022-11-25T00:14:18;12.50;99.90
21246;DHT22;10781;50.928;4.440;2022-11-25T00:16:44;12.50;99.90
21246;DHT22;10781;50.928;4.440;2022-11-25T00:19:10;12.50;99.90
21246;DHT22;10781;50.928;4.440;2022-11-25T00:21:36;12.50;99.90
21246;DHT22;10781;50.928;4.440;2022-11-25T00:24:04;12.50;99.90
21246;DHT22;10781;50.928;4.440;2022-11-25T00:26:33;12.50;99.90
21246;DHT22;10781;50.928;4.440;2022-11-25T00:29:01;12.40;99.90
21246;DHT22;10781;50.928;4.440;2022-11-25T00:31:29;12.30;99.90
21246;DHT22;10781;50.928;4.440;2022-11-25T00:33:56;12.20;99.90
21246;DHT22;10781;50.928;4.440;2022-11-25T00:38:53;11.80;99.90
21246;DHT22;10781;50.928;4.440;2022-11-25T00:41:19;11.50;99.90
21246;DHT22;10781;50.928;4.440;2022-11-25T00:44:03;11.30;99.90
21246;DHT22;10781;50.928;4.440;2022-11-25T00:46:48;11.00;99.90
21246;DHT22;10781;50.928;4.440;2022-11-25T00:49:13;10.80;99.90
21246;DHT22;10781;50.928;4.440;2022-11-25T00:51:39;10.60;99.90
21246;DHT22;10781;50.928;4.440;2022-11-25T00:54:04;10.60;99.90
21246;DHT22;10781;50.928;4.440;2022-11-25T00:56:30;10.60;99.90
21246;DHT22;10781;50.928;4.440;2022-11-25T00:58:56;10.50;99.90
21246;DHT22;10781;50.928;4.440;2022-11-25T01:01:22;10.60;99.90
21246;DHT22;10781;50.928;4.440;2022-11-25T01:03:48;10.50;99.90
21246;DHT22;10781;50.928;4.440;2022-11-25T01:06:14;10.50;99.90
21246;DHT22;10781;50.928;4.440;2022-11-25T01:08:40;10.40;99.90
21246;DHT22;10781;50.928;4.440;2022-11-25T01:11:09;10.50;99.90
21246;DHT22;10781;50.928;4.440;2022-11-25T01:13:35;10.50;99.90
21246;DHT22;10781;50.928;4.440;2022-11-25T01:16:05;10.50;99.90
21246;DHT22;10781;50.928;4.440;2022-11-25T01:18:32;10.50;99.90
21246;DHT22;10781;50.928;4.440;2022-11-25T01:21:09;10.50;99.90
21246;DHT22;10781;50.928;4.440;2022-11-25T01:23:36;10.40;99.90
21246;DHT22;10781;50.928;4.440;2022-11-25T01:26:14;10.40;99.90
21246;DHT22;10781;50.928;4.440;2022-11-25T01:28:40;10.40;99.90
21246;DHT22;10781;50.928;4.440;2022-11-25T01:31:09;10.50;99.90
21246;DHT22;10781;50.928;4.440;2022-11-25T01:33:35;10.60;99.90
21246;DHT22;10781;50.928;4.440;2022-11-25T01:36:02;10.90;99.90
21246;DHT22;10781;50.928;4.440;2022-11-25T01:38:28;10.90;99.90
21246;DHT22;10781;50.928;4.440;2022-11-25T01:40:54;10.60;99.90
21246;DHT22;10781;50.928;4.440;2022-11-25T01:43:20;10.70;99.90
21246;DHT22;10781;50.928;4.440;2022-11-25T01:45:46;10.80;99.90
21246;DHT22;10781;50.928;4.440;2022-11-25T01:48:23;10.60;99.90
21246;DHT22;10781;50.928;4.440;2022-11-25T01:50:50;10.40;99.90
21246;DHT22;10781;50.928;4.440;2022-11-25T01:53:17;10.00;99.90
21246;DHT22;10781;50.928;4.440;2022-11-25T01:55:48;9.80;99.90
21246;DHT22;10781;50.928;4.440;2022-11-25T01:58:19;9.70;99.90
21246;DHT22;10781;50.928;4.440;2022-11-25T02:00:45;9.70;99.90
21246;DHT22;10781;50.928;4.440;2022-11-25T02:03:23;9.50;99.90
21246;DHT22;10781;50.928;4.440;2022-11-25T02:06:10;9.60;99.90
21246;DHT22;10781;50.928;4.440;2022-11-25T02:08:38;9.70;99.90
21246;DHT22;10781;50.928;4.440;2022-11-25T02:11:04;9.90;99.90
21246;DHT22;10781;50.928;4.440;2022-11-25T02:13:31;9.90;99.90
21246;DHT22;10781;50.928;4.440;2022-11-25T02:15:57;10.10;99.90
21246;DHT22;10781;50.928;4.440;2022-11-25T02:18:24;10.30;99.90
21246;DHT22;10781;50.928;4.440;2022-11-25T02:20:50;10.50;99.90
21246;DHT22;10781;50.928;4.440;2022-11-25T02:26:00;10.60;99.90
21246;DHT22;10781;50.928;4.440;2022-11-25T02:28:29;10.50;99.90
21246;DHT22;10781;50.928;4.440;2022-11-25T02:30:55;10.50;99.90
21246;DHT22;10781;50.928;4.440;2022-11-25T02:33:21;10.60;99.90
21246;DHT22;10781;50.928;4.440;2022-11-25T02:35:48;10.40;99.90
21246;DHT22;10781;50.928;4.440;2022-11-25T02:38:19;10.40;99.90
21246;DHT22;10781;50.928;4.440;2022-11-25T02:40:57;10.50;99.90
21246;DHT22;10781;50.928;4.440;2022-11-25T02:43:27;10.40;99.90
21246;DHT22;10781;50.928;4.440;2022-11-25T02:46:08;10.40;99.90
21246;DHT22;10781;50.928;4.440;2022-11-25T02:48:37;10.40;99.90
21246;DHT22;10781;50.928;4.440;2022-11-25T02:51:04;10.40;99.90
21246;DHT22;10781;50.928;4.440;2022-11-25T02:53:30;10.50;99.90
21246;DHT22;10781;50.928;4.440;2022-11-25T02:55:55;10.40;99.90
21246;DHT22;10781;50.928;4.440;2022-11-25T02:58:21;10.40;99.90
21246;DHT22;10781;50.928;4.440;2022-11-25T03:00:47;10.40;99.90
21246;DHT22;10781;50.928;4.440;2022-11-25T03:03:13;10.30;99.90
21246;DHT22;10781;50.928;4.440;2022-11-25T03:05:39;10.40;99.90
21246;DHT22;10781;50.928;4.440;2022-11-25T03:08:05;10.50;99.90
21246;DHT22;10781;50.928;4.440;2022-11-25T03:10:31;10.50;99.90
21246;DHT22;10781;50.928;4.440;2022-11-25T03:12:57;10.50;99.90
21246;DHT22;10781;50.928;4.440;2022-11-25T03:15:23;10.40;99.90
21246;DHT22;10781;50.928;4.440;2022-11-25T03:17:48;10.30;99.90
21246;DHT22;10781;50.928;4.440;2022-11-25T03:20:14;10.30;99.90
21246;DHT22;10781;50.928;4.440;2022-11-25T03:22:40;10.20;99.90
21246;DHT22;10781;50.928;4.440;2022-11-25T03:25:07;10.10;99.90
21246;DHT22;10781;50.928;4.440;2022-11-25T03:27:33;9.90;99.90
21246;DHT22;10781;50.928;4.440;2022-11-25T03:29:59;9.80;99.90
21246;DHT22;10781;50.928;4.440;2022-11-25T03:32:25;9.80;99.90
21246;DHT22;10781;50.928;4.440;2022-11-25T03:34:51;9.90;99.90
21246;DHT22;10781;50.928;4.440;2022-11-25T03:37:17;9.70;99.90
21246;DHT22;10781;50.928;4.440;2022-11-25T03:39:42;9.60;99.90
21246;DHT22;10781;50.928;4.440;2022-11-25T03:42:08;9.80;99.90
21246;DHT22;10781;50.928;4.440;2022-11-25T03:44:33;9.80;99.90
21246;DHT22;10781;50.928;4.440;2022-11-25T03:46:59;9.80;99.90
21246;DHT22;10781;50.928;4.440;2022-11-25T03:49:25;9.90;99.90
21246;DHT22;10781;50.928;4.440;2022-11-25T03:51:50;10.00;99.90
21246;DHT22;10781;50.928;4.440;2022-11-25T03:54:16;10.00;99.90
21246;DHT22;10781;50.928;4.440;2022-11-25T03:56:42;10.00;99.90
21246;DHT22;10781;50.928;4.440;2022-11-25T03:59:07;9.90;99.90
21246;DHT22;10781;50.928;4.440;2022-11-25T04:01:33;9.90;99.90
21246;DHT22;10781;50.928;4.440;2022-11-25T04:04:00;9.90;99.90
21246;DHT22;10781;50.928;4.440;2022-11-25T04:06:25;10.00;99.90
21246;DHT22;10781;50.928;4.440;2022-11-25T04:08:51;10.10;99.90
21246;DHT22;10781;50.928;4.440;2022-11-25T04:11:17;10.00;99.90
21246;DHT22;10781;50.928;4.440;2022-11-25T04:13:42;10.00;99.90
21246;DHT22;10781;50.928;4.440;2022-11-25T04:16:20;10.00;99.90
21246;DHT22;10781;50.928;4.440;2022-11-25T04:18:47;10.00;99.90
21246;DHT22;10781;50.928;4.440;2022-11-25T04:21:12;9.90;99.90
21246;DHT22;10781;50.928;4.440;2022-11-25T04:23:38;9.90;99.90
21246;DHT22;10781;50.928;4.440;2022-11-25T04:26:04;9.90;99.90
21246;DHT22;10781;50.928;4.440;2022-11-25T04:28:29;9.90;99.90
21246;DHT22;10781;50.928;4.440;2022-11-25T04:30:55;9.80;99.90
21246;DHT22;10781;50.928;4.440;2022-11-25T04:33:20;9.90;99.90
21246;DHT22;10781;50.928;4.440;2022-11-25T04:35:46;10.00;99.90
21246;DHT22;10781;50.928;4.440;2022-11-25T04:38:12;10.10;99.90
21246;DHT22;10781;50.928;4.440;2022-11-25T04:40:38;10.00;99.90
21246;DHT22;10781;50.928;4.440;2022-11-25T04:43:03;10.00;99.90
21246;DHT22;10781;50.928;4.440;2022-11-25T04:45:29;9.90;99.90
21246;DHT22;10781;50.928;4.440;2022-11-25T04:47:55;9.90;99.90
21246;DHT22;10781;50.928;4.440;2022-11-25T04:50:21;10.00;99.90
21246;DHT22;10781;50.928;4.440;2022-11-25T04:52:47;9.90;99.90
21246;DHT22;10781;50.928;4.440;2022-11-25T04:55:13;9.90;99.90
21246;DHT22;10781;50.928;4.440;2022-11-25T04:57:39;9.90;99.90
21246;DHT22;10781;50.928;4.440;2022-11-25T05:00:06;9.90;99.90
21246;DHT22;10781;50.928;4.440;2022-11-25T05:02:32;9.90;99.90
21246;DHT22;10781;50.928;4.440;2022-11-25T05:04:57;10.00;99.90
21246;DHT22;10781;50.928;4.440;2022-11-25T05:07:25;10.20;99.90
21246;DHT22;10781;50.928;4.440;2022-11-25T05:09:51;10.10;99.90
21246;DHT22;10781;50.928;4.440;2022-11-25T05:12:20;10.20;99.90
21246;DHT22;10781;50.928;4.440;2022-11-25T05:14:46;10.10;99.90
21246;DHT22;10781;50.928;4.440;2022-11-25T05:17:16;10.10;99.90
21246;DHT22;10781;50.928;4.440;2022-11-25T05:19:43;10.10;99.90
21246;DHT22;10781;50.928;4.440;2022-11-25T05:22:11;10.10;99.90
21246;DHT22;10781;50.928;4.440;2022-11-25T05:24:37;10.00;99.90
21246;DHT22;10781;50.928;4.440;2022-11-25T05:27:02;9.90;99.90
21246;DHT22;10781;50.928;4.440;2022-11-25T05:29:28;10.00;99.90
21246;DHT22;10781;50.928;4.440;2022-11-25T05:31:54;10.00;99.90
21246;DHT22;10781;50.928;4.440;2022-11-25T05:34:19;9.90;99.90
21246;DHT22;10781;50.928;4.440;2022-11-25T05:36:45;10.00;99.90
21246;DHT22;10781;50.928;4.440;2022-11-25T05:39:10;9.90;99.90
21246;DHT22;10781;50.928;4.440;2022-11-25T05:41:36;9.90;99.90
21246;DHT22;10781;50.928;4.440;2022-11-25T05:44:02;9.80;99.90
21246;DHT22;10781;50.928;4.440;2022-11-25T05:46:29;9.70;99.90
21246;DHT22;10781;50.928;4.440;2022-11-25T05:48:55;9.60;99.90
21246;DHT22;10781;50.928;4.440;2022-11-25T05:51:22;9.60;99.90
21246;DHT22;10781;50.928;4.440;2022-11-25T05:53:48;9.50;99.90
21246;DHT22;10781;50.928;4.440;2022-11-25T05:56:14;9.40;99.90
21246;DHT22;10781;50.928;4.440;2022-11-25T05:58:39;9.40;99.90
21246;DHT22;10781;50.928;4.440;2022-11-25T06:01:11;9.50;99.90
21246;DHT22;10781;50.928;4.440;2022-11-25T06:03:37;9.50;99.90
21246;DHT22;10781;50.928;4.440;2022-11-25T06:06:04;9.40;99.90
21246;DHT22;10781;50.928;4.440;2022-11-25T06:08:30;9.50;99.90
21246;DHT22;10781;50.928;4.440;2022-11-25T06:10:56;9.50;99.90
21246;DHT22;10781;50.928;4.440;2022-11-25T06:13:21;9.50;99.90
21246;DHT22;10781;50.928;4.440;2022-11-25T06:15:47;9.50;99.90
21246;DHT22;10781;50.928;4.440;2022-11-25T06:18:14;9.60;99.90
21246;DHT22;10781;50.928;4.440;2022-11-25T06:20:41;9.60;99.90
21246;DHT22;10781;50.928;4.440;2022-11-25T06:23:07;9.50;99.90
21246;DHT22;10781;50.928;4.440;2022-11-25T06:25:33;9.40;99.90
21246;DHT22;10781;50.928;4.440;2022-11-25T06:27:59;9.40;99.90
21246;DHT22;10781;50.928;4.440;2022-11-25T06:30:25;9.30;99.90
21246;DHT22;10781;50.928;4.440;2022-11-25T06:32:53;9.40;99.90
21246;DHT22;10781;50.928;4.440;2022-11-25T06:35:19;9.30;99.90
21246;DHT22;10781;50.928;4.440;2022-11-25T06:37:44;9.20;99.90
21246;DHT22;10781;50.928;4.440;2022-11-25T06:40:10;9.40;99.90
21246;DHT22;10781;50.928;4.440;2022-11-25T06:42:37;9.50;99.90
21246;DHT22;10781;50.928;4.440;2022-11-25T06:45:04;9.50;99.90
21246;DHT22;10781;50.928;4.440;2022-11-25T06:47:30;9.60;99.90
21246;DHT22;10781;50.928;4.440;2022-11-25T06:49:55;9.50;99.90
21246;DHT22;10781;50.928;4.440;2022-11-25T06:52:21;9.50;99.90
21246;DHT22;10781;50.928;4.440;2022-11-25T06:54:47;9.40;99.90
21246;DHT22;10781;50.928;4.440;2022-11-25T06:57:16;9.20;99.90
21246;DHT22;10781;50.928;4.440;2022-11-25T06:59:41;9.20;99.90
21246;DHT22;10781;50.928;4.440;2022-11-25T07:02:10;9.20;99.90
21246;DHT22;10781;50.928;4.440;2022-11-25T07:04:36;9.30;99.90
21246;DHT22;10781;50.928;4.440;2022-11-25T07:07:01;9.30;99.90
21246;DHT22;10781;50.928;4.440;2022-11-25T07:09:28;9.30;99.90
21246;DHT22;10781;50.928;4.440;2022-11-25T07:11:54;9.40;99.90
21246;DHT22;10781;50.928;4.440;2022-11-25T07:14:19;9.30;99.90
21246;DHT22;10781;50.928;4.440;2022-11-25T07:16:45;9.30;99.90
21246;DHT22;10781;50.928;4.440;2022-11-25T07:19:13;9.30;99.90
21246;DHT22;10781;50.928;4.440;2022-11-25T07:21:40;9.30;99.90
21246;DHT22;10781;50.928;4.440;2022-11-25T07:24:06;9.40;99.90
21246;DHT22;10781;50.928;4.440;2022-11-25T07:26:34;9.40;99.90
21246;DHT22;10781;50.928;4.440;2022-11-25T07:29:04;9.30;99.90
21246;DHT22;10781;50.928;4.440;2022-11-25T07:31:36;9.40;99.90
21246;DHT22;10781;50.928;4.440;2022-11-25T07:34:20;9.40;99.90
21246;DHT22;10781;50.928;4.440;2022-11-25T07:36:47;9.30;99.90
21246;DHT22;10781;50.928;4.440;2022-11-25T07:39:18;9.30;99.90
21246;DHT22;10781;50.928;4.440;2022-11-25T07:41:45;9.30;99.90
21246;DHT22;10781;50.928;4.440;2022-11-25T07:44:13;9.30;99.90
21246;DHT22;10781;50.928;4.440;2022-11-25T07:46:41;9.40;99.90
21246;DHT22;10781;50.928;4.440;2022-11-25T07:49:09;9.40;99.90
21246;DHT22;10781;50.928;4.440;2022-11-25T07:51:50;9.40;99.90
21246;DHT22;10781;50.928;4.440;2022-11-25T07:54:17;9.50;99.90
21246;DHT22;10781;50.928;4.440;2022-11-25T07:56:43;9.40;99.90
21246;DHT22;10781;50.928;4.440;2022-11-25T07:59:12;9.40;99.90
21246;DHT22;10781;50.928;4.440;2022-11-25T08:01:39;9.40;99.90
21246;DHT22;10781;50.928;4.440;2022-11-25T08:04:06;9.40;99.90
21246;DHT22;10781;50.928;4.440;2022-11-25T08:06:32;9.40;99.90
21246;DHT22;10781;50.928;4.440;2022-11-25T08:09:01;9.40;99.90
21246;DHT22;10781;50.928;4.440;2022-11-25T08:11:30;9.30;99.90
21246;DHT22;10781;50.928;4.440;2022-11-25T08:13:56;9.30;99.90
21246;DHT22;10781;50.928;4.440;2022-11-25T08:16:24;9.40;99.90
21246;DHT22;10781;50.928;4.440;2022-11-25T08:18:52;9.70;99.90
21246;DHT22;10781;50.928;4.440;2022-11-25T08:21:18;9.60;99.90
21246;DHT22;10781;50.928;4.440;2022-11-25T08:23:44;9.60;99.90
21246;DHT22;10781;50.928;4.440;2022-11-25T08:28:46;9.70;99.90
21246;DHT22;10781;50.928;4.440;2022-11-25T08:31:26;9.70;99.90
21246;DHT22;10781;50.928;4.440;2022-11-25T08:33:53;9.90;99.90
21246;DHT22;10781;50.928;4.440;2022-11-25T08:36:19;9.90;99.90
21246;DHT22;10781;50.928;4.440;2022-11-25T08:38:46;10.00;99.90
21246;DHT22;10781;50.928;4.440;2022-11-25T08:41:15;10.30;99.90
21246;DHT22;10781;50.928;4.440;2022-11-25T08:43:41;10.30;99.90
21246;DHT22;10781;50.928;4.440;2022-11-25T08:46:09;10.40;99.90
21246;DHT22;10781;50.928;4.440;2022-11-25T08:48:35;10.40;99.90
21246;DHT22;10781;50.928;4.440;2022-11-25T08:51:01;10.30;99.90
21246;DHT22;10781;50.928;4.440;2022-11-25T08:53:26;10.20;99.90
21246;DHT22;10781;50.928;4.440;2022-11-25T08:55:52;10.30;99.90
21246;DHT22;10781;50.928;4.440;2022-11-25T08:58:18;10.20;99.90
21246;DHT22;10781;50.928;4.440;2022-11-25T09:00:44;10.00;99.90
21246;DHT22;10781;50.928;4.440;2022-11-25T09:03:10;9.90;99.90
21246;DHT22;10781;50.928;4.440;2022-11-25T09:05:41;9.90;99.90
21246;DHT22;10781;50.928;4.440;2022-11-25T09:08:08;9.90;99.90
21246;DHT22;10781;50.928;4.440;2022-11-25T09:10:34;9.80;99.90
21246;DHT22;10781;50.928;4.440;2022-11-25T09:13:00;9.70;99.90
21246;DHT22;10781;50.928;4.440;2022-11-25T09:15:26;9.60;99.90
21246;DHT22;10781;50.928;4.440;2022-11-25T09:18:00;9.80;99.90
21246;DHT22;10781;50.928;4.440;2022-11-25T09:20:26;9.80;99.90
21246;DHT22;10781;50.928;4.440;2022-11-25T09:22:52;9.80;99.90
21246;DHT22;10781;50.928;4.440;2022-11-25T09:25:19;9.80;99.90
21246;DHT22;10781;50.928;4.440;2022-11-25T09:27:45;9.90;99.90
21246;DHT22;10781;50.928;4.440;2022-11-25T09:30:11;9.90;99.90
21246;DHT22;10781;50.928;4.440;2022-11-25T09:32:37;10.00;99.90
21246;DHT22;10781;50.928;4.440;2022-11-25T09:35:02;10.00;99.90
21246;DHT22;10781;50.928;4.440;2022-11-25T09:37:28;10.00;99.90
21246;DHT22;10781;50.928;4.440;2022-11-25T09:39:54;10.00;99.90
21246;DHT22;10781;50.928;4.440;2022-11-25T09:42:50;9.90;99.90
21246;DHT22;10781;50.928;4.440;2022-11-25T09:54:39;10.40;99.90
21246;DHT22;10781;50.928;4.440;2022-11-25T10:00:15;10.50;99.90
21246;DHT22;10781;50.928;4.440;2022-11-25T10:05:24;10.60;99.90
21246;DHT22;10781;50.928;4.440;2022-11-25T10:07:54;10.60;99.90
21246;DHT22;10781;50.928;4.440;2022-11-25T10:10:29;10.60;99.90
21246;DHT22;10781;50.928;4.440;2022-11-25T10:12:57;10.60;99.90
21246;DHT22;10781;50.928;4.440;2022-11-25T10:15:32;10.70;99.90
21246;DHT22;10781;50.928;4.440;2022-11-25T10:18:13;10.70;99.90
21246;DHT22;10781;50.928;4.440;2022-11-25T10:20:41;10.80;99.90
21246;DHT22;10781;50.928;4.440;2022-11-25T10:23:14;10.80;99.90
21246;DHT22;10781;50.928;4.440;2022-11-25T10:25:44;10.90;99.90
21246;DHT22;10781;50.928;4.440;2022-11-25T10:28:22;11.00;99.90
21246;DHT22;10781;50.928;4.440;2022-11-25T10:31:19;10.90;99.90
21246;DHT22;10781;50.928;4.440;2022-11-25T10:33:53;11.00;99.90
21246;DHT22;10781;50.928;4.440;2022-11-25T10:36:22;11.00;99.90
21246;DHT22;10781;50.928;4.440;2022-11-25T10:41:23;11.00;99.90
21246;DHT22;10781;50.928;4.440;2022-11-25T10:43:50;11.10;99.90
21246;DHT22;10781;50.928;4.440;2022-11-25T10:46:34;11.10;99.90
21246;DHT22;10781;50.928;4.440;2022-11-25T10:51:49;11.20;99.90
21246;DHT22;10781;50.928;4.440;2022-11-25T10:54:23;11.30;99.90
21246;DHT22;10781;50.928;4.440;2022-11-25T10:57:02;11.40;99.90
21246;DHT22;10781;50.928;4.440;2022-11-25T10:59:55;11.50;99.90
21246;DHT22;10781;50.928;4.440;2022-11-25T11:02:27;11.40;99.90
21246;DHT22;10781;50.928;4.440;2022-11-25T11:04:57;11.40;99.90
21246;DHT22;10781;50.928;4.440;2022-11-25T11:07:26;11.30;99.90
21246;DHT22;10781;50.928;4.440;2022-11-25T11:09:52;11.30;99.90
21246;DHT22;10781;50.928;4.440;2022-11-25T11:12:26;11.50;99.90
21246;DHT22;10781;50.928;4.440;2022-11-25T11:17:35;11.40;99.90
21246;DHT22;10781;50.928;4.440;2022-11-25T11:20:13;11.60;99.90
21246;DHT22;10781;50.928;4.440;2022-11-25T11:22:53;11.70;99.90
21246;DHT22;10781;50.928;4.440;2022-11-25T11:25:23;11.80;99.90
21246;DHT22;10781;50.928;4.440;2022-11-25T11:27:49;11.70;99.90
21246;DHT22;10781;50.928;4.440;2022-11-25T11:30:16;11.90;99.90
21246;DHT22;10781;50.928;4.440;2022-11-25T11:35:46;11.80;99.90
21246;DHT22;10781;50.928;4.440;2022-11-25T11:40:51;12.00;99.90
21246;DHT22;10781;50.928;4.440;2022-11-25T11:43:42;11.90;99.90
21246;DHT22;10781;50.928;4.440;2022-11-25T11:51:47;12.10;99.90
21246;DHT22;10781;50.928;4.440;2022-11-25T11:56:56;12.10;99.90
21246;DHT22;10781;50.928;4.440;2022-11-25T11:59:53;12.00;99.90
21246;DHT22;10781;50.928;4.440;2022-11-25T12:05:21;12.10;99.90
21246;DHT22;10781;50.928;4.440;2022-11-25T12:10:39;12.40;99.90
21246;DHT22;10781;50.928;4.440;2022-11-25T12:19:09;12.20;99.90
21246;DHT22;10781;50.928;4.440;2022-11-25T12:24:41;12.50;99.90
21246;DHT22;10781;50.928;4.440;2022-11-25T12:30:12;12.40;99.90
21246;DHT22;10781;50.928;4.440;2022-11-25T12:32:42;12.30;99.90
21246;DHT22;10781;50.928;4.440;2022-11-25T12:37:43;12.30;99.90
21246;DHT22;10781;50.928;4.440;2022-11-25T12:40:47;12.40;99.90
21246;DHT22;10781;50.928;4.440;2022-11-25T12:45:44;12.40;99.90
21246;DHT22;10781;50.928;4.440;2022-11-25T12:48:11;12.30;99.90
21246;DHT22;10781;50.928;4.440;2022-11-25T12:53:14;12.40;99.90
21246;DHT22;10781;50.928;4.440;2022-11-25T12:55:41;12.40;99.90
21246;DHT22;10781;50.928;4.440;2022-11-25T13:01:08;12.30;99.90
21246;DHT22;10781;50.928;4.440;2022-11-25T13:15:25;12.50;99.90
21246;DHT22;10781;50.928;4.440;2022-11-25T13:18:02;12.60;99.90
21246;DHT22;10781;50.928;4.440;2022-11-25T13:25:40;12.90;99.90
21246;DHT22;10781;50.928;4.440;2022-11-25T13:31:23;13.00;99.90
21246;DHT22;10781;50.928;4.440;2022-11-25T13:34:02;12.80;99.90
21246;DHT22;10781;50.928;4.440;2022-11-25T13:36:57;12.70;99.90
21246;DHT22;10781;50.928;4.440;2022-11-25T13:42:20;12.60;99.90
21246;DHT22;10781;50.928;4.440;2022-11-25T13:44:50;12.70;99.90
21246;DHT22;10781;50.928;4.440;2022-11-25T13:50:03;12.70;99.90
21246;DHT22;10781;50.928;4.440;2022-11-25T13:55:31;12.50;99.90
21246;DHT22;10781;50.928;4.440;2022-11-25T13:58:19;12.50;99.90
21246;DHT22;10781;50.928;4.440;2022-11-25T14:17:43;12.70;99.90
21246;DHT22;10781;50.928;4.440;2022-11-25T14:20:35;12.60;99.90
21246;DHT22;10781;50.928;4.440;2022-11-25T14:25:56;12.70;99.90
21246;DHT22;10781;50.928;4.440;2022-11-25T14:30:54;12.60;99.90
21246;DHT22;10781;50.928;4.440;2022-11-25T14:33:28;12.70;99.90
21246;DHT22;10781;50.928;4.440;2022-11-25T14:36:02;12.70;99.90
21246;DHT22;10781;50.928;4.440;2022-11-25T14:38:49;12.70;99.90
21246;DHT22;10781;50.928;4.440;2022-11-25T14:43:47;12.50;99.90
21246;DHT22;10781;50.928;4.440;2022-11-25T14:46:18;12.40;99.90
21246;DHT22;10781;50.928;4.440;2022-11-25T14:48:56;12.50;99.90
21246;DHT22;10781;50.928;4.440;2022-11-25T14:51:24;12.40;99.90
21246;DHT22;10781;50.928;4.440;2022-11-25T14:53:51;12.50;99.90
21246;DHT22;10781;50.928;4.440;2022-11-25T14:56:28;12.50;99.90
21246;DHT22;10781;50.928;4.440;2022-11-25T14:58:56;12.50;99.90
21246;DHT22;10781;50.928;4.440;2022-11-25T15:01:31;12.40;99.90
21246;DHT22;10781;50.928;4.440;2022-11-25T15:04:23;12.40;99.90
21246;DHT22;10781;50.928;4.440;2022-11-25T15:06:55;12.20;99.90
21246;DHT22;10781;50.928;4.440;2022-11-25T15:11:51;12.10;99.90
21246;DHT22;10781;50.928;4.440;2022-11-25T15:14:30;12.10;99.90
21246;DHT22;10781;50.928;4.440;2022-11-25T15:16:57;12.20;99.90
21246;DHT22;10781;50.928;4.440;2022-11-25T15:19:25;12.20;99.90
21246;DHT22;10781;50.928;4.440;2022-11-25T15:22:00;12.20;99.90
21246;DHT22;10781;50.928;4.440;2022-11-25T15:24:42;12.20;99.90
21246;DHT22;10781;50.928;4.440;2022-11-25T15:27:16;12.20;99.90
21246;DHT22;10781;50.928;4.440;2022-11-25T15:29:43;12.10;99.90
21246;DHT22;10781;50.928;4.440;2022-11-25T15:32:23;12.10;99.90
21246;DHT22;10781;50.928;4.440;2022-11-25T15:34:51;11.90;99.90
21246;DHT22;10781;50.928;4.440;2022-11-25T15:37:17;12.10;99.90
21246;DHT22;10781;50.928;4.440;2022-11-25T15:39:43;12.20;99.90
21246;DHT22;10781;50.928;4.440;2022-11-25T15:44:57;11.90;99.90
21246;DHT22;10781;50.928;4.440;2022-11-25T15:47:25;11.80;99.90
21246;DHT22;10781;50.928;4.440;2022-11-25T15:50:16;11.70;99.90
21246;DHT22;10781;50.928;4.440;2022-11-25T15:52:46;11.60;99.90
21246;DHT22;10781;50.928;4.440;2022-11-25T15:55:35;11.60;99.90
21246;DHT22;10781;50.928;4.440;2022-11-25T16:00:31;11.50;99.90
21246;DHT22;10781;50.928;4.440;2022-11-25T16:02:57;11.50;99.90
21246;DHT22;10781;50.928;4.440;2022-11-25T16:07:57;11.50;99.90
21246;DHT22;10781;50.928;4.440;2022-11-25T16:10:25;11.40;99.90
21246;DHT22;10781;50.928;4.440;2022-11-25T16:15:50;11.40;99.90
21246;DHT22;10781;50.928;4.440;2022-11-25T16:18:18;11.20;99.90
21246;DHT22;10781;50.928;4.440;2022-11-25T16:20:50;11.20;99.90
21246;DHT22;10781;50.928;4.440;2022-11-25T16:23:16;11.20;99.90
21246;DHT22;10781;50.928;4.440;2022-11-25T16:26:00;11.10;99.90
21246;DHT22;10781;50.928;4.440;2022-11-25T16:28:27;11.10;99.90
21246;DHT22;10781;50.928;4.440;2022-11-25T16:30:53;11.10;99.90
21246;DHT22;10781;50.928;4.440;2022-11-25T16:33:23;11.00;99.90
21246;DHT22;10781;50.928;4.440;2022-11-25T16:35:49;10.90;99.90
21246;DHT22;10781;50.928;4.440;2022-11-25T16:38:14;11.00;99.90
21246;DHT22;10781;50.928;4.440;2022-11-25T16:40:40;10.90;99.90
21246;DHT22;10781;50.928;4.440;2022-11-25T16:43:17;10.80;99.90
21246;DHT22;10781;50.928;4.440;2022-11-25T16:45:48;10.80;99.90
21246;DHT22;10781;50.928;4.440;2022-11-25T16:48:17;10.70;99.90
21246;DHT22;10781;50.928;4.440;2022-11-25T16:50:43;10.60;99.90
21246;DHT22;10781;50.928;4.440;2022-11-25T16:53:10;10.60;99.90
21246;DHT22;10781;50.928;4.440;2022-11-25T16:55:37;10.60;99.90
21246;DHT22;10781;50.928;4.440;2022-11-25T16:58:24;10.60;99.90
21246;DHT22;10781;50.928;4.440;2022-11-25T17:00:52;10.60;99.90
21246;DHT22;10781;50.928;4.440;2022-11-25T17:03:19;10.70;99.90
21246;DHT22;10781;50.928;4.440;2022-11-25T17:05:46;10.70;99.90
21246;DHT22;10781;50.928;4.440;2022-11-25T17:08:12;10.70;99.90
21246;DHT22;10781;50.928;4.440;2022-11-25T17:10:40;10.80;99.90
21246;DHT22;10781;50.928;4.440;2022-11-25T17:13:06;10.80;99.90
21246;DHT22;10781;50.928;4.440;2022-11-25T17:15:38;10.70;99.90
21246;DHT22;10781;50.928;4.440;2022-11-25T17:18:05;10.60;99.90
21246;DHT22;10781;50.928;4.440;2022-11-25T17:20:31;10.50;99.90
21246;DHT22;10781;50.928;4.440;2022-11-25T17:22:57;10.50;99.90
21246;DHT22;10781;50.928;4.440;2022-11-25T17:25:24;10.50;99.90
21246;DHT22;10781;50.928;4.440;2022-11-25T17:27:52;10.50;99.90
21246;DHT22;10781;50.928;4.440;2022-11-25T17:30:25;10.50;99.90
21246;DHT22;10781;50.928;4.440;2022-11-25T17:32:57;10.50;99.90
21246;DHT22;10781;50.928;4.440;2022-11-25T17:35:23;10.70;99.90
21246;DHT22;10781;50.928;4.440;2022-11-25T17:37:48;10.60;99.90
21246;DHT22;10781;50.928;4.440;2022-11-25T17:40:14;10.40;99.90
21246;DHT22;10781;50.928;4.440;2022-11-25T17:42:41;10.40;99.90
21246;DHT22;10781;50.928;4.440;2022-11-25T17:45:19;10.40;99.90
21246;DHT22;10781;50.928;4.440;2022-11-25T17:47:45;10.30;99.90
21246;DHT22;10781;50.928;4.440;2022-11-25T17:50:13;10.40;99.90
21246;DHT22;10781;50.928;4.440;2022-11-25T17:52:39;10.50;99.90
21246;DHT22;10781;50.928;4.440;2022-11-25T17:55:05;10.60;99.90
21246;DHT22;10781;50.928;4.440;2022-11-25T17:57:31;10.60;99.90
21246;DHT22;10781;50.928;4.440;2022-11-25T17:59:58;10.60;99.90
21246;DHT22;10781;50.928;4.440;2022-11-25T18:02:23;10.50;99.90
21246;DHT22;10781;50.928;4.440;2022-11-25T18:04:49;10.50;99.90
21246;DHT22;10781;50.928;4.440;2022-11-25T18:07:15;10.50;99.90